sensor_id;sensor_type;location;lat;lon;timestamp;P1;durP1;ratioP1;P2;durP2;ratioP2
2009;SDS011;1008;47.404;8.502;2023-10-08T00:02:17;16.07;;;10.10;;
2009;SDS011;1008;47.404;8.502;2023-10-08T00:04:47;17.10;;;11.23;;
2009;SDS011;1008;47.404;8.502;2023-10-08T00:07:16;15.70;;;10.67;;
2009;SDS011;1008;47.404;8.502;2023-10-08T00:09:46;16.87;;;10.53;;
2009;SDS011;1008;47.404;8.502;2023-10-08T00:12:13;14.73;;;10.00;;
2009;SDS011;1008;47.404;8.502;2023-10-08T00:14:41;18.53;;;10.00;;
2009;SDS011;1008;47.404;8.502;2023-10-08T00:17:10;14.00;;;9.50;;
2009;SDS011;1008;47.404;8.502;2023-10-08T00:19:39;16.00;;;9.90;;
2009;SDS011;1008;47.404;8.502;2023-10-08T00:22:07;12.70;;;9.10;;
2009;SDS011;1008;47.404;8.502;2023-10-08T00:24:35;16.33;;;9.83;;
2009;SDS011;1008;47.404;8.502;2023-10-08T00:27:06;14.70;;;9.60;;
2009;SDS011;1008;47.404;8.502;2023-10-08T00:29:33;10.87;;;8.30;;
2009;SDS011;1008;47.404;8.502;2023-10-08T00:31:59;14.07;;;9.10;;
2009;SDS011;1008;47.404;8.502;2023-10-08T00:34:36;14.17;;;8.33;;
2009;SDS011;1008;47.404;8.502;2023-10-08T00:37:06;14.00;;;9.30;;
2009;SDS011;1008;47.404;8.502;2023-10-08T00:39:35;11.50;;;7.73;;
2009;SDS011;1008;47.404;8.502;2023-10-08T00:42:03;10.43;;;6.83;;
2009;SDS011;1008;47.404;8.502;2023-10-08T00:44:32;9.73;;;6.37;;
2009;SDS011;1008;47.404;8.502;2023-10-08T00:47:03;8.23;;;5.50;;
2009;SDS011;1008;47.404;8.502;2023-10-08T00:49:32;9.17;;;5.90;;
2009;SDS011;1008;47.404;8.502;2023-10-08T00:52:14;11.40;;;5.87;;
2009;SDS011;1008;47.404;8.502;2023-10-08T00:54:55;8.67;;;5.13;;
2009;SDS011;1008;47.404;8.502;2023-10-08T00:57:33;9.50;;;5.07;;
2009;SDS011;1008;47.404;8.502;2023-10-08T01:00:02;8.17;;;4.90;;
2009;SDS011;1008;47.404;8.502;2023-10-08T01:02:37;13.80;;;5.93;;
2009;SDS011;1008;47.404;8.502;2023-10-08T01:05:11;8.87;;;5.90;;
2009;SDS011;1008;47.404;8.502;2023-10-08T01:07:41;7.07;;;4.87;;
2009;SDS011;1008;47.404;8.502;2023-10-08T01:10:10;8.47;;;5.67;;
2009;SDS011;1008;47.404;8.502;2023-10-08T01:12:39;9.50;;;5.43;;
2009;SDS011;1008;47.404;8.502;2023-10-08T01:15:19;11.03;;;6.20;;
2009;SDS011;1008;47.404;8.502;2023-10-08T01:17:53;11.93;;;5.70;;
2009;SDS011;1008;47.404;8.502;2023-10-08T01:20:24;8.23;;;5.40;;
2009;SDS011;1008;47.404;8.502;2023-10-08T01:23:00;11.17;;;6.27;;
2009;SDS011;1008;47.404;8.502;2023-10-08T01:25:29;9.23;;;6.40;;
2009;SDS011;1008;47.404;8.502;2023-10-08T01:27:55;7.27;;;5.37;;
2009;SDS011;1008;47.404;8.502;2023-10-08T01:30:25;10.60;;;5.80;;
2009;SDS011;1008;47.404;8.502;2023-10-08T01:32:59;10.43;;;5.77;;
2009;SDS011;1008;47.404;8.502;2023-10-08T01:35:28;11.33;;;6.50;;
2009;SDS011;1008;47.404;8.502;2023-10-08T01:37:56;11.40;;;6.67;;
2009;SDS011;1008;47.404;8.502;2023-10-08T01:40:26;10.43;;;5.53;;
2009;SDS011;1008;47.404;8.502;2023-10-08T01:42:54;12.07;;;7.00;;
2009;SDS011;1008;47.404;8.502;2023-10-08T01:45:24;9.53;;;6.40;;
2009;SDS011;1008;47.404;8.502;2023-10-08T01:47:51;13.37;;;6.20;;
2009;SDS011;1008;47.404;8.502;2023-10-08T01:50:19;8.97;;;6.07;;
2009;SDS011;1008;47.404;8.502;2023-10-08T01:52:47;10.13;;;6.20;;
2009;SDS011;1008;47.404;8.502;2023-10-08T01:55:14;12.20;;;6.57;;
2009;SDS011;1008;47.404;8.502;2023-10-08T01:57:44;11.67;;;6.73;;
2009;SDS011;1008;47.404;8.502;2023-10-08T02:00:12;13.17;;;6.73;;
2009;SDS011;1008;47.404;8.502;2023-10-08T02:02:44;13.70;;;6.97;;
2009;SDS011;1008;47.404;8.502;2023-10-08T02:05:10;14.03;;;7.80;;
2009;SDS011;1008;47.404;8.502;2023-10-08T02:07:40;11.33;;;6.07;;
2009;SDS011;1008;47.404;8.502;2023-10-08T02:10:07;11.23;;;6.20;;
2009;SDS011;1008;47.404;8.502;2023-10-08T02:12:35;10.67;;;6.23;;
2009;SDS011;1008;47.404;8.502;2023-10-08T02:15:04;9.07;;;6.70;;
2009;SDS011;1008;47.404;8.502;2023-10-08T02:17:32;11.27;;;7.20;;
2009;SDS011;1008;47.404;8.502;2023-10-08T02:19:59;10.27;;;7.23;;
2009;SDS011;1008;47.404;8.502;2023-10-08T02:22:25;15.20;;;7.10;;
2009;SDS011;1008;47.404;8.502;2023-10-08T02:24:52;11.57;;;7.17;;
2009;SDS011;1008;47.404;8.502;2023-10-08T02:27:26;13.30;;;6.90;;
2009;SDS011;1008;47.404;8.502;2023-10-08T02:29:53;10.70;;;6.33;;
2009;SDS011;1008;47.404;8.502;2023-10-08T02:32:21;12.87;;;6.97;;
2009;SDS011;1008;47.404;8.502;2023-10-08T02:34:48;15.57;;;6.53;;
2009;SDS011;1008;47.404;8.502;2023-10-08T02:37:15;13.63;;;7.10;;
2009;SDS011;1008;47.404;8.502;2023-10-08T02:39:44;11.57;;;7.70;;
2009;SDS011;1008;47.404;8.502;2023-10-08T02:42:11;11.90;;;8.07;;
2009;SDS011;1008;47.404;8.502;2023-10-08T02:44:39;12.03;;;7.60;;
2009;SDS011;1008;47.404;8.502;2023-10-08T02:47:07;10.10;;;6.90;;
2009;SDS011;1008;47.404;8.502;2023-10-08T02:49:35;9.63;;;7.07;;
2009;SDS011;1008;47.404;8.502;2023-10-08T02:52:05;12.30;;;6.80;;
2009;SDS011;1008;47.404;8.502;2023-10-08T02:54:33;10.60;;;6.43;;
2009;SDS011;1008;47.404;8.502;2023-10-08T02:57:02;11.30;;;6.60;;
2009;SDS011;1008;47.404;8.502;2023-10-08T02:59:30;8.67;;;5.27;;
2009;SDS011;1008;47.404;8.502;2023-10-08T03:02:06;10.87;;;6.20;;
2009;SDS011;1008;47.404;8.502;2023-10-08T03:04:41;10.50;;;6.27;;
2009;SDS011;1008;47.404;8.502;2023-10-08T03:07:10;8.40;;;5.10;;
2009;SDS011;1008;47.404;8.502;2023-10-08T03:09:46;10.03;;;5.07;;
2009;SDS011;1008;47.404;8.502;2023-10-08T03:12:15;10.10;;;5.60;;
2009;SDS011;1008;47.404;8.502;2023-10-08T03:14:42;9.47;;;6.43;;
2009;SDS011;1008;47.404;8.502;2023-10-08T03:17:27;8.53;;;5.13;;
2009;SDS011;1008;47.404;8.502;2023-10-08T03:19:56;6.90;;;4.63;;
2009;SDS011;1008;47.404;8.502;2023-10-08T03:22:43;8.90;;;4.87;;
2009;SDS011;1008;47.404;8.502;2023-10-08T03:25:11;8.60;;;4.90;;
2009;SDS011;1008;47.404;8.502;2023-10-08T03:27:44;6.83;;;4.87;;
2009;SDS011;1008;47.404;8.502;2023-10-08T03:30:13;12.23;;;5.87;;
2009;SDS011;1008;47.404;8.502;2023-10-08T03:32:40;8.40;;;5.50;;
2009;SDS011;1008;47.404;8.502;2023-10-08T03:35:10;9.63;;;5.57;;
2009;SDS011;1008;47.404;8.502;2023-10-08T03:37:37;7.67;;;4.93;;
2009;SDS011;1008;47.404;8.502;2023-10-08T03:40:07;9.53;;;4.80;;
2009;SDS011;1008;47.404;8.502;2023-10-08T03:42:50;8.80;;;5.07;;
2009;SDS011;1008;47.404;8.502;2023-10-08T03:45:17;8.93;;;5.13;;
2009;SDS011;1008;47.404;8.502;2023-10-08T03:47:58;8.47;;;4.83;;
2009;SDS011;1008;47.404;8.502;2023-10-08T03:50:32;10.30;;;4.57;;
2009;SDS011;1008;47.404;8.502;2023-10-08T03:53:06;12.17;;;4.90;;
2009;SDS011;1008;47.404;8.502;2023-10-08T03:55:36;9.90;;;5.47;;
2009;SDS011;1008;47.404;8.502;2023-10-08T03:58:05;9.50;;;4.50;;
2009;SDS011;1008;47.404;8.502;2023-10-08T04:00:36;12.50;;;4.90;;
2009;SDS011;1008;47.404;8.502;2023-10-08T04:03:07;8.00;;;4.50;;
2009;SDS011;1008;47.404;8.502;2023-10-08T04:05:37;9.60;;;5.20;;
2009;SDS011;1008;47.404;8.502;2023-10-08T04:08:30;8.07;;;4.70;;
2009;SDS011;1008;47.404;8.502;2023-10-08T04:11:08;6.73;;;4.57;;
2009;SDS011;1008;47.404;8.502;2023-10-08T04:13:55;8.80;;;5.07;;
2009;SDS011;1008;47.404;8.502;2023-10-08T04:16:25;8.83;;;5.50;;
2009;SDS011;1008;47.404;8.502;2023-10-08T04:18:53;11.23;;;5.20;;
2009;SDS011;1008;47.404;8.502;2023-10-08T04:21:22;12.83;;;5.33;;
2009;SDS011;1008;47.404;8.502;2023-10-08T04:23:52;11.53;;;5.57;;
2009;SDS011;1008;47.404;8.502;2023-10-08T04:26:19;11.90;;;4.90;;
2009;SDS011;1008;47.404;8.502;2023-10-08T04:28:49;9.30;;;5.60;;
2009;SDS011;1008;47.404;8.502;2023-10-08T04:31:19;9.47;;;5.80;;
2009;SDS011;1008;47.404;8.502;2023-10-08T04:33:50;11.90;;;5.40;;
2009;SDS011;1008;47.404;8.502;2023-10-08T04:36:17;5.33;;;4.13;;
2009;SDS011;1008;47.404;8.502;2023-10-08T04:38:46;8.17;;;5.10;;
2009;SDS011;1008;47.404;8.502;2023-10-08T04:41:14;10.07;;;4.67;;
2009;SDS011;1008;47.404;8.502;2023-10-08T04:43:44;9.53;;;5.57;;
2009;SDS011;1008;47.404;8.502;2023-10-08T04:46:14;9.40;;;5.00;;
2009;SDS011;1008;47.404;8.502;2023-10-08T04:49:05;10.20;;;5.40;;
2009;SDS011;1008;47.404;8.502;2023-10-08T04:51:34;8.40;;;5.20;;
2009;SDS011;1008;47.404;8.502;2023-10-08T04:54:10;10.70;;;5.00;;
2009;SDS011;1008;47.404;8.502;2023-10-08T04:56:41;8.47;;;4.77;;
2009;SDS011;1008;47.404;8.502;2023-10-08T04:59:08;7.87;;;4.70;;
2009;SDS011;1008;47.404;8.502;2023-10-08T05:01:36;11.53;;;5.40;;
2009;SDS011;1008;47.404;8.502;2023-10-08T05:04:12;8.13;;;5.47;;
2009;SDS011;1008;47.404;8.502;2023-10-08T05:06:57;9.57;;;5.37;;
2009;SDS011;1008;47.404;8.502;2023-10-08T05:09:40;13.10;;;5.13;;
2009;SDS011;1008;47.404;8.502;2023-10-08T05:12:17;10.77;;;5.27;;
2009;SDS011;1008;47.404;8.502;2023-10-08T05:14:59;7.60;;;4.03;;
2009;SDS011;1008;47.404;8.502;2023-10-08T05:17:58;10.23;;;4.87;;
2009;SDS011;1008;47.404;8.502;2023-10-08T05:20:38;7.27;;;4.40;;
2009;SDS011;1008;47.404;8.502;2023-10-08T05:23:22;6.13;;;5.00;;
2009;SDS011;1008;47.404;8.502;2023-10-08T05:26:19;10.90;;;4.60;;
2009;SDS011;1008;47.404;8.502;2023-10-08T05:28:56;9.20;;;5.50;;
2009;SDS011;1008;47.404;8.502;2023-10-08T05:31:47;8.57;;;5.00;;
2009;SDS011;1008;47.404;8.502;2023-10-08T05:34:18;8.27;;;4.80;;
2009;SDS011;1008;47.404;8.502;2023-10-08T05:36:57;8.33;;;4.93;;
2009;SDS011;1008;47.404;8.502;2023-10-08T05:39:40;8.77;;;5.30;;
2009;SDS011;1008;47.404;8.502;2023-10-08T05:42:13;6.57;;;4.33;;
2009;SDS011;1008;47.404;8.502;2023-10-08T05:44:42;12.53;;;4.97;;
2009;SDS011;1008;47.404;8.502;2023-10-08T05:47:31;9.03;;;5.30;;
2009;SDS011;1008;47.404;8.502;2023-10-08T05:50:06;8.30;;;4.60;;
2009;SDS011;1008;47.404;8.502;2023-10-08T05:52:50;10.00;;;4.80;;
2009;SDS011;1008;47.404;8.502;2023-10-08T05:55:28;7.20;;;4.20;;
2009;SDS011;1008;47.404;8.502;2023-10-08T05:58:00;8.50;;;4.60;;
2009;SDS011;1008;47.404;8.502;2023-10-08T06:00:49;6.70;;;4.70;;
2009;SDS011;1008;47.404;8.502;2023-10-08T06:03:32;9.63;;;5.10;;
2009;SDS011;1008;47.404;8.502;2023-10-08T06:06:02;12.67;;;6.30;;
2009;SDS011;1008;47.404;8.502;2023-10-08T06:08:48;9.23;;;6.07;;
2009;SDS011;1008;47.404;8.502;2023-10-08T06:11:17;9.27;;;5.03;;
2009;SDS011;1008;47.404;8.502;2023-10-08T06:14:02;10.37;;;5.40;;
2009;SDS011;1008;47.404;8.502;2023-10-08T06:16:38;8.30;;;4.90;;
2009;SDS011;1008;47.404;8.502;2023-10-08T06:19:08;8.97;;;5.27;;
2009;SDS011;1008;47.404;8.502;2023-10-08T06:21:39;8.70;;;5.00;;
2009;SDS011;1008;47.404;8.502;2023-10-08T06:24:06;9.93;;;5.00;;
2009;SDS011;1008;47.404;8.502;2023-10-08T06:26:35;9.80;;;4.63;;
2009;SDS011;1008;47.404;8.502;2023-10-08T06:29:09;9.37;;;5.17;;
2009;SDS011;1008;47.404;8.502;2023-10-08T06:31:45;9.00;;;4.77;;
2009;SDS011;1008;47.404;8.502;2023-10-08T06:34:16;9.93;;;5.60;;
2009;SDS011;1008;47.404;8.502;2023-10-08T06:36:46;10.70;;;5.10;;
2009;SDS011;1008;47.404;8.502;2023-10-08T06:39:13;8.23;;;4.27;;
2009;SDS011;1008;47.404;8.502;2023-10-08T06:41:44;7.47;;;4.80;;
2009;SDS011;1008;47.404;8.502;2023-10-08T06:44:12;8.03;;;5.23;;
2009;SDS011;1008;47.404;8.502;2023-10-08T06:46:40;9.70;;;5.10;;
2009;SDS011;1008;47.404;8.502;2023-10-08T06:49:07;7.70;;;4.50;;
2009;SDS011;1008;47.404;8.502;2023-10-08T06:51:37;7.87;;;5.50;;
2009;SDS011;1008;47.404;8.502;2023-10-08T06:54:04;9.60;;;5.20;;
2009;SDS011;1008;47.404;8.502;2023-10-08T06:56:35;9.90;;;5.93;;
2009;SDS011;1008;47.404;8.502;2023-10-08T06:59:02;8.30;;;5.10;;
2009;SDS011;1008;47.404;8.502;2023-10-08T07:01:31;10.90;;;5.40;;
2009;SDS011;1008;47.404;8.502;2023-10-08T07:04:04;10.17;;;5.60;;
2009;SDS011;1008;47.404;8.502;2023-10-08T07:06:31;12.20;;;5.70;;
2009;SDS011;1008;47.404;8.502;2023-10-08T07:08:59;10.37;;;5.23;;
2009;SDS011;1008;47.404;8.502;2023-10-08T07:11:30;10.70;;;6.00;;
2009;SDS011;1008;47.404;8.502;2023-10-08T07:14:00;9.43;;;5.80;;
2009;SDS011;1008;47.404;8.502;2023-10-08T07:16:26;10.83;;;5.50;;
2009;SDS011;1008;47.404;8.502;2023-10-08T07:18:54;11.30;;;5.90;;
2009;SDS011;1008;47.404;8.502;2023-10-08T07:21:26;10.40;;;6.00;;
2009;SDS011;1008;47.404;8.502;2023-10-08T07:24:03;13.33;;;7.67;;
2009;SDS011;1008;47.404;8.502;2023-10-08T07:26:34;15.13;;;6.47;;
2009;SDS011;1008;47.404;8.502;2023-10-08T07:29:02;10.00;;;6.07;;
2009;SDS011;1008;47.404;8.502;2023-10-08T07:31:33;10.30;;;5.70;;
2009;SDS011;1008;47.404;8.502;2023-10-08T07:34:03;11.20;;;6.57;;
2009;SDS011;1008;47.404;8.502;2023-10-08T07:36:43;12.10;;;6.20;;
2009;SDS011;1008;47.404;8.502;2023-10-08T07:39:12;12.00;;;6.27;;
2009;SDS011;1008;47.404;8.502;2023-10-08T07:41:50;10.27;;;6.27;;
2009;SDS011;1008;47.404;8.502;2023-10-08T07:44:19;11.50;;;6.10;;
2009;SDS011;1008;47.404;8.502;2023-10-08T07:46:46;12.00;;;5.40;;
2009;SDS011;1008;47.404;8.502;2023-10-08T07:49:15;11.97;;;5.63;;
2009;SDS011;1008;47.404;8.502;2023-10-08T07:51:42;9.67;;;6.20;;
2009;SDS011;1008;47.404;8.502;2023-10-08T07:54:15;9.57;;;5.90;;
2009;SDS011;1008;47.404;8.502;2023-10-08T07:56:44;8.70;;;5.63;;
2009;SDS011;1008;47.404;8.502;2023-10-08T07:59:12;9.73;;;5.70;;
2009;SDS011;1008;47.404;8.502;2023-10-08T08:01:40;8.80;;;5.03;;
2009;SDS011;1008;47.404;8.502;2023-10-08T08:04:07;12.80;;;6.20;;
2009;SDS011;1008;47.404;8.502;2023-10-08T08:06:36;8.60;;;5.47;;
2009;SDS011;1008;47.404;8.502;2023-10-08T08:09:03;12.30;;;5.97;;
2009;SDS011;1008;47.404;8.502;2023-10-08T08:11:34;10.50;;;5.70;;
2009;SDS011;1008;47.404;8.502;2023-10-08T08:14:02;12.50;;;6.20;;
2009;SDS011;1008;47.404;8.502;2023-10-08T08:16:32;13.83;;;6.40;;
2009;SDS011;1008;47.404;8.502;2023-10-08T08:19:02;14.30;;;5.80;;
2009;SDS011;1008;47.404;8.502;2023-10-08T08:21:28;9.67;;;5.77;;
2009;SDS011;1008;47.404;8.502;2023-10-08T08:23:57;8.53;;;6.43;;
2009;SDS011;1008;47.404;8.502;2023-10-08T08:26:30;14.80;;;6.23;;
2009;SDS011;1008;47.404;8.502;2023-10-08T08:29:04;11.30;;;6.03;;
2009;SDS011;1008;47.404;8.502;2023-10-08T08:31:34;8.20;;;5.50;;
2009;SDS011;1008;47.404;8.502;2023-10-08T08:34:01;11.00;;;5.57;;
2009;SDS011;1008;47.404;8.502;2023-10-08T08:36:33;9.80;;;5.40;;
2009;SDS011;1008;47.404;8.502;2023-10-08T08:39:04;9.23;;;5.37;;
2009;SDS011;1008;47.404;8.502;2023-10-08T08:41:36;15.77;;;5.17;;
2009;SDS011;1008;47.404;8.502;2023-10-08T08:44:03;9.73;;;4.30;;
2009;SDS011;1008;47.404;8.502;2023-10-08T08:46:32;11.80;;;5.50;;
2009;SDS011;1008;47.404;8.502;2023-10-08T08:49:02;9.40;;;4.57;;
2009;SDS011;1008;47.404;8.502;2023-10-08T08:51:30;7.40;;;4.53;;
2009;SDS011;1008;47.404;8.502;2023-10-08T08:53:57;11.57;;;4.83;;
2009;SDS011;1008;47.404;8.502;2023-10-08T08:56:27;11.80;;;4.90;;
2009;SDS011;1008;47.404;8.502;2023-10-08T08:58:56;8.70;;;4.50;;
2009;SDS011;1008;47.404;8.502;2023-10-08T09:01:24;14.37;;;4.40;;
2009;SDS011;1008;47.404;8.502;2023-10-08T09:03:51;10.50;;;4.70;;
2009;SDS011;1008;47.404;8.502;2023-10-08T09:06:26;9.40;;;4.17;;
2009;SDS011;1008;47.404;8.502;2023-10-08T09:08:52;10.67;;;4.80;;
2009;SDS011;1008;47.404;8.502;2023-10-08T09:11:38;8.47;;;4.53;;
2009;SDS011;1008;47.404;8.502;2023-10-08T09:14:08;9.77;;;5.17;;
2009;SDS011;1008;47.404;8.502;2023-10-08T09:16:36;9.83;;;5.03;;
2009;SDS011;1008;47.404;8.502;2023-10-08T09:19:03;9.80;;;4.40;;
2009;SDS011;1008;47.404;8.502;2023-10-08T09:21:36;13.50;;;4.73;;
2009;SDS011;1008;47.404;8.502;2023-10-08T09:24:03;11.87;;;6.33;;
2009;SDS011;1008;47.404;8.502;2023-10-08T09:26:35;11.57;;;5.13;;
2009;SDS011;1008;47.404;8.502;2023-10-08T09:29:06;8.97;;;4.50;;
2009;SDS011;1008;47.404;8.502;2023-10-08T09:31:37;12.80;;;5.03;;
2009;SDS011;1008;47.404;8.502;2023-10-08T09:34:04;8.90;;;5.07;;
2009;SDS011;1008;47.404;8.502;2023-10-08T09:36:31;11.10;;;5.40;;
2009;SDS011;1008;47.404;8.502;2023-10-08T09:38:59;12.03;;;4.77;;
2009;SDS011;1008;47.404;8.502;2023-10-08T09:41:29;11.03;;;4.57;;
2009;SDS011;1008;47.404;8.502;2023-10-08T09:43:57;13.17;;;4.83;;
2009;SDS011;1008;47.404;8.502;2023-10-08T09:46:29;8.00;;;4.67;;
2009;SDS011;1008;47.404;8.502;2023-10-08T09:48:59;11.53;;;4.70;;
2009;SDS011;1008;47.404;8.502;2023-10-08T09:51:27;8.93;;;4.53;;
2009;SDS011;1008;47.404;8.502;2023-10-08T09:53:58;7.57;;;4.80;;
2009;SDS011;1008;47.404;8.502;2023-10-08T09:56:35;9.33;;;4.60;;
2009;SDS011;1008;47.404;8.502;2023-10-08T09:59:05;9.53;;;4.43;;
2009;SDS011;1008;47.404;8.502;2023-10-08T10:01:35;10.33;;;4.50;;
2009;SDS011;1008;47.404;8.502;2023-10-08T10:04:05;8.63;;;4.50;;
2009;SDS011;1008;47.404;8.502;2023-10-08T10:06:32;10.33;;;4.57;;
2009;SDS011;1008;47.404;8.502;2023-10-08T10:09:01;8.33;;;4.50;;
2009;SDS011;1008;47.404;8.502;2023-10-08T10:11:31;7.10;;;4.27;;
2009;SDS011;1008;47.404;8.502;2023-10-08T10:13:59;7.67;;;4.60;;
2009;SDS011;1008;47.404;8.502;2023-10-08T10:16:26;9.00;;;4.80;;
2009;SDS011;1008;47.404;8.502;2023-10-08T10:18:56;9.47;;;4.53;;
2009;SDS011;1008;47.404;8.502;2023-10-08T10:21:25;9.80;;;4.10;;
2009;SDS011;1008;47.404;8.502;2023-10-08T10:23:55;11.47;;;4.60;;
2009;SDS011;1008;47.404;8.502;2023-10-08T10:26:24;7.97;;;4.40;;
2009;SDS011;1008;47.404;8.502;2023-10-08T10:29:17;10.13;;;5.00;;
2009;SDS011;1008;47.404;8.502;2023-10-08T10:31:45;9.93;;;4.30;;
2009;SDS011;1008;47.404;8.502;2023-10-08T10:34:14;9.10;;;4.40;;
2009;SDS011;1008;47.404;8.502;2023-10-08T10:36:43;11.10;;;5.00;;
2009;SDS011;1008;47.404;8.502;2023-10-08T10:39:13;8.40;;;4.13;;
2009;SDS011;1008;47.404;8.502;2023-10-08T10:41:43;14.63;;;4.03;;
2009;SDS011;1008;47.404;8.502;2023-10-08T10:44:10;8.87;;;3.90;;
2009;SDS011;1008;47.404;8.502;2023-10-08T10:46:38;7.93;;;4.27;;
2009;SDS011;1008;47.404;8.502;2023-10-08T10:49:07;8.10;;;4.33;;
2009;SDS011;1008;47.404;8.502;2023-10-08T10:51:45;10.60;;;4.20;;
2009;SDS011;1008;47.404;8.502;2023-10-08T10:54:16;7.63;;;3.57;;
2009;SDS011;1008;47.404;8.502;2023-10-08T10:56:46;15.10;;;4.13;;
2009;SDS011;1008;47.404;8.502;2023-10-08T10:59:13;12.17;;;4.03;;
2009;SDS011;1008;47.404;8.502;2023-10-08T11:01:44;9.30;;;3.83;;
2009;SDS011;1008;47.404;8.502;2023-10-08T11:04:17;9.43;;;3.90;;
2009;SDS011;1008;47.404;8.502;2023-10-08T11:06:46;11.20;;;3.93;;
2009;SDS011;1008;47.404;8.502;2023-10-08T11:09:15;8.77;;;3.90;;
2009;SDS011;1008;47.404;8.502;2023-10-08T11:12:00;6.90;;;3.60;;
2009;SDS011;1008;47.404;8.502;2023-10-08T11:14:35;8.97;;;4.30;;
2009;SDS011;1008;47.404;8.502;2023-10-08T11:17:09;10.00;;;3.40;;
2009;SDS011;1008;47.404;8.502;2023-10-08T11:19:37;12.03;;;4.50;;
2009;SDS011;1008;47.404;8.502;2023-10-08T11:22:05;10.13;;;3.80;;
2009;SDS011;1008;47.404;8.502;2023-10-08T11:24:33;6.73;;;3.60;;
2009;SDS011;1008;47.404;8.502;2023-10-08T11:27:00;8.10;;;4.10;;
2009;SDS011;1008;47.404;8.502;2023-10-08T11:29:41;8.20;;;3.77;;
2009;SDS011;1008;47.404;8.502;2023-10-08T11:32:09;5.70;;;3.77;;
2009;SDS011;1008;47.404;8.502;2023-10-08T11:34:37;8.20;;;3.37;;
2009;SDS011;1008;47.404;8.502;2023-10-08T11:37:06;8.40;;;4.70;;
2009;SDS011;1008;47.404;8.502;2023-10-08T11:39:44;8.50;;;3.70;;
2009;SDS011;1008;47.404;8.502;2023-10-08T11:42:14;11.03;;;3.77;;
2009;SDS011;1008;47.404;8.502;2023-10-08T11:44:57;8.47;;;4.10;;
2009;SDS011;1008;47.404;8.502;2023-10-08T11:47:25;9.47;;;4.00;;
2009;SDS011;1008;47.404;8.502;2023-10-08T11:50:00;7.30;;;3.60;;
2009;SDS011;1008;47.404;8.502;2023-10-08T11:52:36;10.33;;;4.00;;
2009;SDS011;1008;47.404;8.502;2023-10-08T11:55:06;9.80;;;4.50;;
2009;SDS011;1008;47.404;8.502;2023-10-08T11:57:35;10.97;;;4.67;;
2009;SDS011;1008;47.404;8.502;2023-10-08T12:00:10;11.30;;;3.97;;
2009;SDS011;1008;47.404;8.502;2023-10-08T12:02:44;8.67;;;5.37;;
2009;SDS011;1008;47.404;8.502;2023-10-08T12:05:11;7.33;;;3.80;;
2009;SDS011;1008;47.404;8.502;2023-10-08T12:07:45;7.70;;;3.93;;
2009;SDS011;1008;47.404;8.502;2023-10-08T12:10:12;7.40;;;4.07;;
2009;SDS011;1008;47.404;8.502;2023-10-08T12:12:41;9.93;;;4.10;;
2009;SDS011;1008;47.404;8.502;2023-10-08T12:15:10;9.27;;;3.97;;
2009;SDS011;1008;47.404;8.502;2023-10-08T12:17:44;8.77;;;4.60;;
2009;SDS011;1008;47.404;8.502;2023-10-08T12:20:32;7.30;;;3.70;;
2009;SDS011;1008;47.404;8.502;2023-10-08T12:23:01;11.07;;;4.40;;
2009;SDS011;1008;47.404;8.502;2023-10-08T12:25:28;11.23;;;4.80;;
2009;SDS011;1008;47.404;8.502;2023-10-08T12:27:57;9.43;;;4.10;;
2009;SDS011;1008;47.404;8.502;2023-10-08T12:30:29;7.40;;;3.93;;
2009;SDS011;1008;47.404;8.502;2023-10-08T12:32:57;12.90;;;4.07;;
2009;SDS011;1008;47.404;8.502;2023-10-08T12:35:24;12.07;;;4.70;;
2009;SDS011;1008;47.404;8.502;2023-10-08T12:37:54;13.00;;;3.70;;
2009;SDS011;1008;47.404;8.502;2023-10-08T12:40:23;14.63;;;3.90;;
2009;SDS011;1008;47.404;8.502;2023-10-08T12:42:58;7.93;;;3.77;;
2009;SDS011;1008;47.404;8.502;2023-10-08T12:45:25;6.63;;;4.20;;
2009;SDS011;1008;47.404;8.502;2023-10-08T12:47:53;6.70;;;3.60;;
2009;SDS011;1008;47.404;8.502;2023-10-08T12:50:20;9.33;;;3.43;;
2009;SDS011;1008;47.404;8.502;2023-10-08T12:52:54;8.70;;;4.00;;
2009;SDS011;1008;47.404;8.502;2023-10-08T12:55:21;9.37;;;3.67;;
2009;SDS011;1008;47.404;8.502;2023-10-08T12:57:53;8.50;;;3.80;;
2009;SDS011;1008;47.404;8.502;2023-10-08T13:00:29;11.87;;;3.70;;
2009;SDS011;1008;47.404;8.502;2023-10-08T13:02:56;8.40;;;3.73;;
2009;SDS011;1008;47.404;8.502;2023-10-08T13:05:23;8.70;;;3.60;;
2009;SDS011;1008;47.404;8.502;2023-10-08T13:07:53;6.27;;;3.30;;
2009;SDS011;1008;47.404;8.502;2023-10-08T13:10:21;7.20;;;3.30;;
2009;SDS011;1008;47.404;8.502;2023-10-08T13:12:48;6.70;;;3.57;;
2009;SDS011;1008;47.404;8.502;2023-10-08T13:15:16;8.43;;;4.27;;
2009;SDS011;1008;47.404;8.502;2023-10-08T13:17:43;8.87;;;3.63;;
2009;SDS011;1008;47.404;8.502;2023-10-08T13:20:11;9.03;;;3.77;;
2009;SDS011;1008;47.404;8.502;2023-10-08T13:22:38;10.67;;;4.20;;
2009;SDS011;1008;47.404;8.502;2023-10-08T13:25:05;13.63;;;4.70;;
2009;SDS011;1008;47.404;8.502;2023-10-08T13:27:33;9.80;;;3.73;;
2009;SDS011;1008;47.404;8.502;2023-10-08T13:30:04;7.03;;;3.87;;
2009;SDS011;1008;47.404;8.502;2023-10-08T13:32:35;10.30;;;3.97;;
2009;SDS011;1008;47.404;8.502;2023-10-08T13:35:02;9.77;;;5.37;;
2009;SDS011;1008;47.404;8.502;2023-10-08T13:37:31;8.23;;;3.50;;
2009;SDS011;1008;47.404;8.502;2023-10-08T13:39:58;8.27;;;4.20;;
2009;SDS011;1008;47.404;8.502;2023-10-08T13:42:25;11.53;;;4.07;;
2009;SDS011;1008;47.404;8.502;2023-10-08T13:44:52;9.07;;;3.90;;
2009;SDS011;1008;47.404;8.502;2023-10-08T13:47:20;6.73;;;3.33;;
2009;SDS011;1008;47.404;8.502;2023-10-08T13:49:51;10.90;;;3.97;;
2009;SDS011;1008;47.404;8.502;2023-10-08T13:52:18;5.60;;;3.40;;
2009;SDS011;1008;47.404;8.502;2023-10-08T13:54:51;9.20;;;4.27;;
2009;SDS011;1008;47.404;8.502;2023-10-08T13:57:18;8.80;;;4.00;;
2009;SDS011;1008;47.404;8.502;2023-10-08T13:59:45;9.17;;;3.73;;
2009;SDS011;1008;47.404;8.502;2023-10-08T14:02:13;14.40;;;4.53;;
2009;SDS011;1008;47.404;8.502;2023-10-08T14:04:40;10.27;;;4.23;;
2009;SDS011;1008;47.404;8.502;2023-10-08T14:07:10;10.80;;;4.43;;
2009;SDS011;1008;47.404;8.502;2023-10-08T14:09:41;7.47;;;3.90;;
2009;SDS011;1008;47.404;8.502;2023-10-08T14:12:10;10.70;;;4.20;;
2009;SDS011;1008;47.404;8.502;2023-10-08T14:14:38;10.17;;;4.27;;
2009;SDS011;1008;47.404;8.502;2023-10-08T14:17:08;5.80;;;2.93;;
2009;SDS011;1008;47.404;8.502;2023-10-08T14:19:39;7.47;;;3.30;;
2009;SDS011;1008;47.404;8.502;2023-10-08T14:22:12;10.00;;;3.60;;
2009;SDS011;1008;47.404;8.502;2023-10-08T14:24:40;10.57;;;4.10;;
2009;SDS011;1008;47.404;8.502;2023-10-08T14:27:09;10.33;;;3.33;;
2009;SDS011;1008;47.404;8.502;2023-10-08T14:29:36;13.40;;;3.87;;
2009;SDS011;1008;47.404;8.502;2023-10-08T14:32:05;10.40;;;3.80;;
2009;SDS011;1008;47.404;8.502;2023-10-08T14:34:34;10.40;;;3.50;;
2009;SDS011;1008;47.404;8.502;2023-10-08T14:37:20;11.00;;;3.80;;
2009;SDS011;1008;47.404;8.502;2023-10-08T14:40:05;8.63;;;3.73;;
2009;SDS011;1008;47.404;8.502;2023-10-08T14:42:50;9.10;;;3.80;;
2009;SDS011;1008;47.404;8.502;2023-10-08T14:45:20;7.60;;;3.60;;
2009;SDS011;1008;47.404;8.502;2023-10-08T14:47:51;10.27;;;3.80;;
2009;SDS011;1008;47.404;8.502;2023-10-08T14:50:19;8.43;;;3.80;;
2009;SDS011;1008;47.404;8.502;2023-10-08T14:52:48;10.47;;;4.20;;
2009;SDS011;1008;47.404;8.502;2023-10-08T14:55:15;10.07;;;4.83;;
2009;SDS011;1008;47.404;8.502;2023-10-08T14:57:42;9.80;;;3.70;;
2009;SDS011;1008;47.404;8.502;2023-10-08T15:00:09;10.63;;;4.47;;
2009;SDS011;1008;47.404;8.502;2023-10-08T15:02:36;9.30;;;4.20;;
2009;SDS011;1008;47.404;8.502;2023-10-08T15:05:03;11.80;;;5.20;;
2009;SDS011;1008;47.404;8.502;2023-10-08T15:07:32;9.60;;;4.53;;
2009;SDS011;1008;47.404;8.502;2023-10-08T15:10:01;8.33;;;3.30;;
2009;SDS011;1008;47.404;8.502;2023-10-08T15:12:27;8.67;;;3.80;;
2009;SDS011;1008;47.404;8.502;2023-10-08T15:14:59;10.47;;;3.33;;
2009;SDS011;1008;47.404;8.502;2023-10-08T15:17:37;7.57;;;3.63;;
2009;SDS011;1008;47.404;8.502;2023-10-08T15:20:04;11.00;;;3.80;;
2009;SDS011;1008;47.404;8.502;2023-10-08T15:22:33;8.93;;;4.07;;
2009;SDS011;1008;47.404;8.502;2023-10-08T15:25:01;7.50;;;3.63;;
2009;SDS011;1008;47.404;8.502;2023-10-08T15:27:28;9.30;;;4.20;;
2009;SDS011;1008;47.404;8.502;2023-10-08T15:29:56;7.50;;;3.30;;
2009;SDS011;1008;47.404;8.502;2023-10-08T15:32:23;16.80;;;4.17;;